Date,TemperatureHighF,TemperatureAvgF,TemperatureLowF,DewpointHighF,DewpointAvgF,DewpointLowF,HumidityHigh,HumidityAvg,HumidityLow,PressureMaxIn,PressureMinIn,WindSpeedMaxMPH,WindSpeedAvgMPH,GustSpeedMaxMPH,PrecipitationSumIn
2013-1-1,46.9,40.5,34.9,46.4,38.8,33.9,99,94,78,30.05,29.51,6,0,8,0.09
2013-1-2,50.6,42.8,33.2,49.8,42.0,32.7,99,97,92,30.33,30.05,3,0,3,0.01
2013-1-3,52.8,50.2,46.1,50.5,48.8,45.6,99,95,91,30.62,30.33,5,0,5,0.00
2013-1-4,50.7,48.9,46.4,48.5,46.1,44.2,95,90,83,30.66,30.60,5,0,5,0.00
2013-1-5,51.2,47.6,41.2,49.6,46.3,40.7,99,95,90,30.60,30.52,2,0,4,0.01
2013-1-6,46.4,44.1,40.6,45.8,43.7,40.1,99,99,96,30.52,30.40,1,0,3,0.00
2013-1-7,47.4,45.8,43.9,46.0,44.8,43.1,98,96,94,30.39,30.25,2,0,2,0.01
2013-1-8,51.8,48.8,44.4,48.4,47.0,43.3,98,93,87,30.27,30.18,5,0,5,0.02
2013-1-9,48.7,42.7,28.9,48.4,41.5,28.4,99,95,81,30.19,30.07,6,0,6,0.06
2013-1-10,38.9,35.6,28.5,37.7,34.6,28.0,99,96,91,30.07,29.93,5,0,5,0.01
2013-1-11,43.1,34.7,29.5,40.3,33.8,29.0,99,97,88,30.09,29.98,1,0,3,0.00
2013-1-12,40.3,37.4,30.9,37.4,34.3,30.4,99,89,68,29.97,29.84,13,1,13,0.13
2013-1-13,38.4,35.5,30.8,35.9,30.8,28.1,91,83,75,30.14,29.95,8,1,8,0.00
2013-1-14,36.7,33.2,29.8,36.0,32.1,28.5,99,96,91,30.11,29.64,8,0,8,0.14
2013-1-15,36.0,33.0,25.5,32.6,30.4,24.8,98,90,85,29.87,29.63,7,1,13,0.00
2013-1-16,33.7,27.8,22.2,30.5,26.5,21.5,98,95,88,30.03,29.84,4,0,5,0.00
2013-1-17,34.5,29.1,21.1,33.2,27.8,20.4,98,95,85,30.08,29.88,1,0,1,0.00
2013-1-18,33.2,30.7,28.8,29.6,28.3,27.0,95,91,85,29.88,29.43,7,0,9,0.00
2013-1-19,33.4,31.6,29.9,31.4,29.3,26.9,96,91,85,29.48,29.40,12,1,12,0.00
2013-1-20,31.5,30.6,29.4,30.5,28.8,26.8,97,93,86,29.48,29.28,5,1,13,0.00
2013-1-21,35.1,29.8,22.9,33.0,28.8,22.0,98,96,89,29.50,29.27,1,0,1,0.00
2013-1-22,35.7,29.7,19.2,34.3,28.2,18.2,98,94,86,29.68,29.51,15,1,15,0.22
2013-1-23,36.2,35.3,34.4,33.4,32.1,31.0,92,88,84,29.80,29.67,7,1,13,0.20
2013-1-24,35.6,34.0,31.9,31.8,30.4,27.7,94,87,74,30.14,29.80,5,0,7,0.01
2013-1-25,37.2,33.7,31.1,35.6,30.9,28.3,96,90,83,30.13,29.57,4,0,4,0.03
2013-1-26,45.1,40.1,35.1,43.5,38.8,34.6,99,95,86,29.84,29.55,7,0,7,0.13
2013-1-27,49.3,44.0,37.1,48.8,41.2,36.2,99,90,67,29.63,29.29,13,1,13,0.28
2013-1-28,49.3,41.9,32.8,48.8,40.6,32.3,99,95,88,29.83,29.52,9,0,9,0.20
2013-1-29,55.5,52.3,47.8,53.7,51.0,47.0,99,95,91,29.66,29.56,9,0,9,0.05
2013-1-30,53.2,48.5,43.4,52.1,43.7,37.9,99,84,63,30.05,29.56,10,1,10,0.16
2013-1-31,50.7,46.7,43.9,45.2,41.6,38.4,93,82,68,30.05,29.80,12,1,12,0.06
2013-2-1,45.8,40.3,33.6,42.6,38.7,33.1,99,94,84,29.85,29.46,4,0,4,0.23
2013-2-2,41.3,36.6,26.7,36.3,31.3,25.2,99,82,63,30.25,29.60,13,2,13,0.01
2013-2-3,48.3,40.0,27.0,46.4,37.6,25.4,96,91,85,30.25,29.91,5,0,5,0.00
2013-2-4,50.1,47.4,41.7,46.3,40.6,35.2,93,78,58,29.95,29.73,16,1,16,0.00
2013-2-5,43.0,39.6,34.1,38.7,33.5,28.0,89,79,59,29.73,29.34,11,1,11,0.08
2013-2-6,42.9,39.9,35.2,38.4,33.4,28.0,87,78,68,30.07,29.38,18,3,18,0.02
2013-2-7,41.6,36.2,30.2,35.6,31.2,27.3,94,82,67,30.11,29.99,6,0,6,0.01
2013-2-8,41.8,36.5,29.5,36.1,32.8,28.8,97,87,70,30.15,30.02,8,1,8,0.00
2013-2-9,38.2,36.7,34.1,36.4,34.7,32.8,97,92,83,30.15,29.86,2,0,5,0.02
2013-2-10,40.7,37.8,33.8,40.2,37.0,32.8,98,97,96,29.86,29.26,7,0,7,0.39
2013-2-11,35.0,34.0,33.0,34.0,32.9,32.2,97,96,94,29.77,29.28,8,0,8,0.22
2013-2-12,36.1,34.6,33.2,32.8,30.2,28.0,94,84,77,30.14,29.77,5,0,5,0.00
2013-2-13,39.3,35.0,33.2,38.2,30.9,27.6,96,85,75,30.20,29.97,5,0,5,0.01
2013-2-14,47.9,43.4,36.2,47.4,41.8,35.1,99,94,88,29.98,29.77,5,0,5,0.06
2013-2-15,49.4,40.0,35.5,40.5,36.2,33.5,99,87,59,30.21,29.98,8,0,8,0.00
2013-2-16,50.6,41.3,32.1,42.1,37.2,31.1,97,86,59,30.25,30.19,2,0,2,0.00
2013-2-17,48.8,38.1,32.2,41.1,34.8,31.2,99,89,57,30.21,30.09,8,0,8,0.00
2013-2-18,46.8,37.4,28.3,38.1,34.1,27.1,99,89,67,30.14,30.09,7,0,7,0.01
2013-2-19,48.9,33.1,23.7,39.0,30.2,22.7,99,90,63,30.14,30.04,3,0,3,0.00
2013-2-20,41.1,36.8,33.1,38.1,32.3,27.8,98,84,68,30.26,30.16,14,1,14,0.02
2013-2-21,36.4,34.7,33.1,29.8,25.2,22.0,80,68,59,30.25,30.16,11,2,11,0.00
2013-2-22,35.4,33.6,32.7,26.6,24.3,22.0,76,69,63,30.16,30.09,12,2,12,0.00
2013-2-23,35.7,33.6,32.2,29.0,26.2,23.3,85,74,63,30.21,30.09,9,1,9,0.00
2013-2-24,36.1,34.3,32.5,29.2,28.2,26.7,85,78,72,30.28,30.21,13,2,13,0.00
2013-2-25,39.3,37.6,34.6,35.9,33.4,28.5,90,85,78,30.38,30.27,13,2,13,0.00
2013-2-26,40.5,39.0,37.6,38.5,37.1,34.7,96,93,88,30.56,30.37,7,1,7,0.02
2013-2-27,42.5,38.4,35.7,37.1,34.6,32.6,94,86,73,30.56,30.47,9,1,9,0.00
2013-2-28,46.0,39.3,35.4,38.4,34.8,32.3,90,84,72,30.48,30.33,9,1,9,0.00
2013-3-1,43.9,40.3,36.3,40.3,35.1,31.2,97,82,67,30.41,30.37,11,1,11,0.02
2013-3-2,42.0,36.2,25.4,32.9,30.4,24.4,96,80,69,30.40,30.28,5,1,6,0.00
2013-3-3,45.3,35.9,25.7,37.9,32.5,24.6,97,88,72,30.29,30.10,8,0,8,0.00
2013-3-4,50.7,39.1,31.1,39.6,34.8,29.8,95,85,64,30.10,29.74,10,1,10,0.00
2013-3-5,61.9,42.1,29.8,47.2,37.5,29.3,99,85,58,29.74,29.57,3,0,3,0.00
2013-3-6,57.1,48.7,42.0,46.6,43.2,39.8,92,82,66,29.57,29.49,6,0,6,0.01
2013-3-7,48.9,47.6,46.2,48.4,46.2,43.6,98,95,91,29.51,29.38,2,0,2,0.21
2013-3-8,50.2,48.4,47.1,49.5,47.8,46.5,98,98,97,29.54,29.38,6,0,6,0.28
2013-3-9,47.0,43.6,38.5,46.5,41.8,34.7,98,93,86,29.67,29.54,6,0,6,0.01
2013-3-10,39.4,36.8,33.8,35.0,32.4,28.5,88,84,80,29.74,29.66,12,2,12,0.00
2013-3-11,33.8,31.5,29.1,29.2,24.7,20.9,84,76,65,29.75,29.71,21,4,21,0.00
2013-3-12,40.2,34.6,28.6,25.6,22.2,17.4,78,61,45,29.81,29.73,21,3,21,0.00
2013-3-13,44.8,38.6,30.3,31.5,28.6,25.0,93,68,48,29.95,29.79,12,2,12,0.00
2013-3-14,45.6,35.3,26.0,31.5,26.7,23.1,97,73,44,30.03,29.92,8,0,8,0.00
2013-3-15,48.4,42.0,34.1,44.0,38.8,27.5,96,88,76,29.92,29.55,7,0,8,0.11
2013-3-16,46.2,42.7,40.1,44.6,41.4,38.7,97,95,91,29.55,29.28,7,1,7,0.28
2013-3-17,44.8,40.4,29.8,43.2,39.2,29.1,98,95,93,29.31,29.16,5,0,5,0.20
2013-3-18,45.3,37.1,29.8,43.0,36.1,29.1,99,96,88,29.36,29.22,4,0,4,0.15
2013-3-19,47.7,40.6,37.0,41.4,37.5,35.7,98,89,71,29.53,29.36,5,0,5,0.03
2013-3-20,45.9,40.3,37.1,38.6,36.7,34.5,93,87,72,30.00,29.53,8,1,8,0.00
2013-3-21,45.6,40.6,37.1,37.5,35.0,33.7,91,81,68,30.01,29.91,11,1,11,0.02
2013-3-22,43.3,39.0,36.8,36.7,35.2,33.5,91,86,76,29.91,29.72,16,2,16,0.17
2013-3-23,37.8,34.7,33.1,35.2,33.2,31.8,96,94,90,29.86,29.75,11,2,11,0.28
2013-3-24,34.5,32.8,31.3,32.8,28.3,24.2,95,84,67,29.94,29.86,12,2,12,0.00
2013-3-25,34.5,33.9,32.9,26.9,25.7,25.1,75,72,68,29.96,29.92,13,2,13,0.00
2013-3-26,35.4,34.2,33.3,26.9,25.7,24.3,75,71,66,29.94,29.88,11,2,11,0.00
2013-3-27,41.7,35.9,32.5,28.5,26.1,23.4,76,67,54,29.88,29.84,11,1,11,0.00
2013-3-28,40.6,35.5,29.6,30.5,26.0,21.9,91,69,54,29.94,29.85,10,1,10,0.00
2013-3-29,43.5,37.0,33.2,28.9,26.3,23.1,79,66,51,29.92,29.78,9,1,10,0.00
2013-3-30,41.9,36.1,28.2,32.7,29.2,26.7,95,77,55,29.97,29.79,9,1,9,0.00
2013-3-31,42.3,35.6,28.0,31.3,28.0,23.4,98,76,54,29.98,29.90,9,1,9,0.01
2013-4-1,44.9,37.2,33.6,29.6,27.1,22.4,81,67,47,29.89,29.83,15,2,15,0.00
2013-4-2,47.1,39.2,33.5,31.3,25.3,17.2,80,60,31,30.06,29.88,15,2,15,0.00
2013-4-3,42.5,36.6,31.8,30.8,26.4,20.5,89,67,41,30.06,29.99,15,2,15,0.00
2013-4-4,37.7,36.0,34.5,33.5,29.2,24.9,92,77,65,30.01,29.90,15,3,15,0.02
2013-4-5,46.1,39.5,35.1,31.6,28.3,22.9,83,66,42,30.11,29.91,14,2,14,0.00
2013-4-6,50.6,39.6,30.1,32.8,29.2,25.7,93,69,41,30.28,30.11,10,1,10,0.00
2013-4-7,56.4,39.9,25.4,34.2,28.3,24.3,97,67,33,30.28,29.88,5,0,5,0.00
2013-4-8,51.3,43.4,38.6,36.2,32.8,29.4,83,67,45,29.88,29.54,12,1,12,0.00
2013-4-9,48.4,42.9,39.2,42.5,39.5,35.5,94,88,79,29.54,29.38,9,1,9,0.07
2013-4-10,52.7,44.4,37.3,44.6,40.4,35.2,95,86,70,29.72,29.41,9,0,9,0.24
2013-4-11,55.2,46.3,42.7,49.0,44.1,41.6,97,92,78,29.49,29.40,6,1,6,0.10
2013-4-12,53.2,47.1,42.5,50.7,46.0,41.7,99,96,87,29.75,29.30,6,0,6,0.41
2013-4-13,53.6,47.4,37.6,50.5,45.8,37.0,99,94,80,29.90,29.75,6,0,6,0.14
2013-4-14,70.2,57.5,50.8,54.2,50.8,46.1,98,80,54,29.96,29.88,10,0,10,0.00
2013-4-15,61.7,54.0,45.1,50.9,47.8,43.3,94,80,65,30.07,29.95,6,0,6,0.00
2013-4-16,63.7,53.3,45.3,49.7,46.4,43.6,94,79,51,30.09,29.92,10,0,10,0.00
2013-4-17,64.8,55.7,47.0,54.9,50.2,44.7,97,83,64,30.09,29.78,8,0,8,0.00
2013-4-18,60.4,50.7,44.3,47.7,42.3,36.2,95,74,54,30.09,29.79,8,1,10,0.18
2013-4-19,56.2,48.7,38.8,43.6,39.8,34.6,92,73,48,30.50,30.09,11,1,11,0.00
2013-4-20,59.2,48.0,35.0,41.3,33.1,28.9,94,62,34,30.51,30.29,8,0,8,0.00
2013-4-21,62.1,45.5,29.9,41.3,35.3,29.2,98,71,36,30.37,30.03,6,0,6,0.00
2013-4-22,60.8,50.5,42.4,47.1,43.7,40.4,97,79,50,30.04,29.95,6,0,6,0.00
2013-4-23,71.2,58.2,48.1,51.3,48.1,46.2,96,72,43,30.22,29.99,6,0,6,0.00
2013-4-24,71.0,57.7,47.0,56.2,51.0,45.6,98,80,55,30.26,30.20,4,0,4,0.01
2013-4-25,77.0,60.0,49.5,59.1,51.5,47.7,98,76,42,30.24,30.01,9,0,9,0.00
2013-4-26,56.1,48.4,37.0,48.0,39.1,28.5,94,73,42,30.03,29.90,15,1,15,0.10
2013-4-27,51.7,43.0,37.8,42.1,36.9,33.6,95,79,57,30.11,29.91,11,1,11,0.06
2013-4-28,55.4,44.9,31.7,41.9,35.7,30.6,98,73,45,30.10,29.90,4,0,5,0.01
2013-4-29,57.5,50.2,38.3,40.9,37.3,34.3,86,63,44,30.17,29.90,8,1,9,0.00
2013-4-30,59.9,47.5,35.9,40.9,36.4,32.2,97,69,38,30.31,30.07,11,1,11,0.00
2013-5-1,62.7,50.0,41.2,42.4,36.6,29.6,89,64,31,30.31,30.15,9,1,9,0.00
2013-5-2,67.3,51.7,40.2,37.0,30.3,18.5,80,49,19,30.22,30.15,8,1,8,0.00
2013-5-3,72.1,53.3,36.5,45.9,40.1,35.2,96,65,29,30.18,30.04,7,0,7,0.00
2013-5-4,64.1,53.6,47.0,53.1,43.3,36.7,85,69,43,30.14,29.98,8,0,8,0.03
2013-5-5,71.3,57.1,46.6,52.5,48.0,40.6,96,73,49,30.20,30.13,3,0,3,0.00
2013-5-6,76.6,59.5,47.5,53.9,48.7,43.4,93,70,41,30.17,30.04,4,0,4,0.00
2013-5-7,79.5,59.7,42.9,51.9,46.3,42.4,98,65,34,30.08,29.85,6,0,6,0.00
2013-5-8,63.3,55.6,47.5,56.3,50.4,44.9,97,83,64,29.85,29.69,5,0,5,0.04
2013-5-9,58.4,50.7,46.1,50.3,44.6,39.5,93,80,56,29.84,29.68,7,0,7,0.09
2013-5-10,65.5,54.6,47.9,49.8,47.3,44.5,91,77,48,29.93,29.69,9,0,9,0.02
2013-5-11,56.9,48.9,40.4,52.4,45.2,39.1,98,88,63,29.92,29.80,9,0,9,0.27
2013-5-12,61.2,49.6,39.9,50.6,44.3,38.9,97,84,48,30.02,29.91,6,0,6,0.02
2013-5-13,59.9,52.8,46.1,50.6,44.2,38.6,96,74,47,29.92,29.81,9,0,9,0.02
2013-5-14,53.9,48.1,43.8,47.5,43.8,39.9,97,85,62,29.83,29.21,5,0,5,0.29
2013-5-15,57.6,47.8,40.3,46.1,42.0,38.5,97,81,56,29.55,29.19,6,0,6,0.06
2013-5-16,68.7,50.3,38.2,49.3,40.9,37.7,99,74,36,29.57,29.47,5,0,5,0.00
2013-5-17,54.4,48.6,38.4,46.1,42.5,37.6,98,80,68,29.75,29.56,8,1,8,0.00
2013-5-18,54.3,52.4,50.9,45.3,44.0,43.0,81,73,68,29.75,29.68,2,1,8,0.00
2013-5-19,51.1,50.5,49.8,43.2,43.0,42.8,77,76,75,29.81,29.78,1,1,1,0.00
2013-5-20,49.8,49.2,48.5,42.8,42.6,42.5,80,79,77,29.83,29.81,1,1,2,0.00
2013-5-21,48.5,47.9,47.2,42.5,42.3,42.1,83,82,80,29.86,29.83,1,1,2,0.00
2013-5-22,47.2,46.6,46.0,42.1,41.9,41.7,86,84,83,29.89,29.86,1,1,2,0.00
2013-5-23,46.0,45.3,44.7,41.7,41.6,41.4,88,87,86,29.91,29.89,1,1,2,0.00
2013-5-24,44.7,44.0,42.9,41.5,41.2,40.4,93,90,88,30.02,29.91,6,1,6,0.24
2013-5-25,59.5,50.3,40.5,43.8,40.6,37.2,92,72,45,30.17,30.02,8,1,8,0.00
2013-5-26,69.5,53.0,40.0,45.6,41.0,37.7,97,69,38,30.14,29.96,7,0,7,0.00
2013-5-27,68.8,54.9,45.0,47.1,42.4,37.1,92,65,38,30.00,29.62,5,0,5,0.00
2013-5-28,53.7,50.0,47.6,52.2,47.9,42.9,97,93,80,29.62,29.48,2,0,2,0.50
2013-5-29,56.8,51.3,46.2,52.4,48.7,45.7,98,91,75,29.76,29.56,7,0,7,0.02
2013-5-30,58.8,54.6,51.7,52.9,51.3,49.6,97,89,78,30.00,29.75,10,1,10,0.16
2013-5-31,70.3,60.5,53.6,56.0,52.1,49.1,87,75,55,30.12,29.99,9,1,10,0.00
2013-6-1,64.4,58.3,52.0,49.4,45.8,42.1,72,64,48,30.30,30.12,10,1,10,0.00
2013-6-2,66.8,57.8,49.2,46.8,43.8,40.7,84,61,43,30.44,30.30,10,1,10,0.00
2013-6-3,68.0,56.0,44.5,47.9,44.4,41.7,97,68,39,30.48,30.40,9,0,9,0.00
2013-6-4,71.0,58.9,48.5,48.7,43.9,40.9,83,60,40,30.42,30.20,11,1,11,0.00
2013-6-5,71.3,58.8,48.9,50.8,47.3,43.7,85,68,43,30.22,30.08,9,1,9,0.00
2013-6-6,74.0,60.3,49.0,54.8,48.9,44.7,86,68,48,30.19,30.12,9,1,9,0.00
2013-6-7,69.0,59.7,51.2,56.1,48.9,44.8,84,68,51,30.22,30.16,8,1,8,0.02
2013-6-8,67.3,57.3,49.9,49.1,46.3,44.9,83,68,50,30.21,30.06,10,1,11,0.00
2013-6-9,58.9,54.8,51.5,48.1,46.1,44.2,79,73,63,30.07,29.96,9,1,9,0.00
2013-6-10,54.0,52.5,51.5,44.3,43.2,43.0,75,71,68,29.99,29.98,2,0,2,0.00
2013-6-11,54.6,53.7,52.8,50.5,48.4,46.3,86,83,79,29.95,29.88,0,0,1,0.00
2013-6-12,56.4,55.5,54.6,54.6,52.5,50.5,94,90,86,29.88,29.82,0,0,0,0.00
2013-6-13,64.3,57.3,50.0,55.3,51.6,46.3,94,82,65,30.05,29.78,10,0,10,0.00
2013-6-14,69.8,57.6,49.1,54.6,49.6,43.3,93,76,47,30.07,29.80,4,0,4,0.00
2013-6-15,65.5,56.4,50.6,54.8,50.4,46.0,94,81,53,29.89,29.74,6,0,6,0.15
2013-6-16,65.0,57.5,52.2,54.5,50.5,48.0,89,78,59,29.96,29.79,3,0,3,0.01
2013-6-17,70.3,61.1,53.3,55.2,51.0,48.6,87,71,51,29.97,29.90,9,0,9,0.02
2013-6-18,64.1,61.3,60.6,58.8,55.2,49.9,90,81,60,29.97,29.93,3,0,3,0.00
2013-6-19,81.5,69.6,61.9,64.4,60.7,57.4,96,75,52,29.98,29.90,6,0,6,0.00
2013-6-20,69.9,64.9,56.2,63.3,59.9,54.4,94,84,76,29.95,29.79,4,0,4,0.00
2013-6-21,72.0,61.9,55.7,62.0,57.7,54.0,94,86,68,29.88,29.78,3,0,3,0.00
2013-6-22,67.9,58.5,53.6,58.5,53.8,51.3,97,85,64,29.87,29.66,10,0,10,0.09
2013-6-23,64.6,58.5,52.7,55.0,52.2,49.3,90,80,68,30.03,29.67,10,0,10,0.00
2013-6-24,62.6,56.5,51.5,49.8,47.0,44.3,90,72,53,30.30,30.03,7,0,7,0.00
2013-6-25,69.6,58.7,48.5,50.5,47.2,43.0,96,68,40,30.42,30.30,7,0,7,0.00
2013-6-26,71.0,61.2,49.7,54.6,50.1,46.1,93,69,45,30.44,30.35,6,0,6,0.00
2013-6-27,70.8,60.6,53.2,53.9,50.6,47.8,95,71,48,30.38,30.18,5,0,5,0.05
2013-6-28,69.2,60.8,53.2,64.9,58.3,51.7,97,92,82,30.18,30.05,5,0,5,0.05
2013-6-29,72.3,66.2,61.6,57.9,52.5,47.3,87,63,44,30.25,30.08,7,0,7,0.00
2013-6-30,82.3,68.7,58.0,62.5,57.9,49.2,93,70,48,30.24,30.07,6,0,6,0.00
2013-7-1,72.0,62.0,52.8,54.3,51.3,47.5,88,69,50,30.08,29.98,5,0,6,0.00
2013-7-2,63.2,57.7,52.0,55.1,51.7,47.4,91,81,65,30.00,29.66,6,0,6,0.00
2013-7-3,69.8,62.2,55.7,60.0,56.9,52.7,97,84,65,30.01,29.64,6,0,6,0.05
2013-7-4,75.3,64.5,55.2,64.0,58.1,51.3,92,81,65,30.26,30.01,4,0,4,0.00
2013-7-5,81.7,65.8,52.3,61.3,55.0,51.1,97,71,41,30.42,30.26,5,0,5,0.00
2013-7-6,86.0,68.5,53.2,61.8,56.5,52.5,98,69,39,30.42,30.33,3,0,3,0.00
2013-7-7,86.3,72.2,59.8,62.8,58.5,53.9,98,66,35,30.50,30.40,9,0,9,0.00
2013-7-8,83.3,71.1,61.4,61.2,56.5,53.3,77,62,39,30.51,30.41,11,1,11,0.00
2013-7-9,81.5,68.6,56.7,55.9,48.7,40.5,79,53,24,30.44,30.25,10,0,10,0.00
2013-7-10,76.6,67.4,55.8,58.9,54.2,45.0,77,63,36,30.36,30.23,12,1,12,0.00
2013-7-11,74.0,62.3,53.9,52.8,48.8,45.4,84,63,42,30.30,30.20,7,1,7,0.00
2013-7-12,75.9,63.6,54.5,59.0,53.7,49.7,89,72,46,30.30,30.20,5,0,5,0.00
2013-7-13,88.3,75.5,58.6,66.0,61.1,55.7,90,64,40,30.26,30.19,6,0,6,0.00
2013-7-14,82.1,71.9,60.8,64.8,60.1,55.7,95,69,44,30.24,30.16,4,0,4,0.00
2013-7-15,88.1,73.8,60.8,59.2,52.9,42.4,84,53,22,30.23,30.16,8,0,8,0.00
2013-7-16,92.0,74.8,61.2,63.3,59.4,57.2,89,62,33,30.21,30.15,3,0,3,0.00
2013-7-17,92.8,75.0,60.8,62.6,58.9,56.5,87,61,33,30.26,30.15,3,0,3,0.00
2013-7-18,85.5,73.1,62.9,60.8,58.0,55.2,81,62,39,30.31,30.24,9,1,9,0.00
2013-7-19,75.1,68.7,62.6,60.0,57.0,53.5,75,67,59,30.30,30.20,4,0,4,0.00
2013-7-20,75.5,68.1,62.9,60.8,59.1,55.5,86,73,59,30.24,30.14,7,0,7,0.00
2013-7-21,80.2,69.6,62.9,62.8,59.4,55.3,85,71,52,30.17,30.01,7,0,7,0.00
2013-7-22,96.8,76.8,64.3,68.2,62.2,59.1,88,64,34,30.04,29.93,4,0,4,0.00
2013-7-23,86.0,72.7,61.8,73.6,64.6,57.8,92,76,60,29.95,29.88,2,0,2,0.06
2013-7-24,61.7,61.4,61.2,58.1,57.9,57.6,88,88,87,29.93,29.93,0,0,0,0.00
2013-7-25,78.0,67.0,57.3,67.9,61.1,54.9,98,82,56,29.93,29.87,4,0,4,0.28
2013-7-26,84.0,67.4,56.0,60.8,56.9,51.8,98,72,42,29.92,29.84,3,0,3,0.00
2013-7-27,87.0,67.1,54.8,66.2,57.4,51.6,97,75,36,29.85,29.58,5,0,5,0.27
2013-7-28,62.0,61.9,61.9,61.1,61.0,61.0,97,97,97,29.60,29.59,1,0,1,0.00
2013-7-29,60.7,60.1,59.6,59.7,59.1,58.1,96,96,95,29.97,29.78,0,0,0,0.03
2013-7-30,69.3,62.4,58.9,65.2,60.5,57.7,98,94,82,29.97,29.85,3,0,3,0.09
2013-7-31,76.5,66.5,60.3,66.4,62.0,59.2,96,86,70,30.00,29.94,7,0,7,0.00
2013-8-1,93.0,76.0,59.1,71.2,64.2,57.7,98,70,42,29.94,29.67,4,0,4,0.00
2013-8-2,77.2,68.9,62.1,65.8,60.8,55.4,93,76,52,29.83,29.74,4,0,4,0.03
2013-8-3,76.0,65.5,57.5,59.8,56.8,53.3,97,76,52,30.09,29.80,5,0,5,0.01
2013-8-4,74.9,65.1,56.2,59.2,56.7,54.1,97,76,52,30.11,30.02,5,0,5,0.00
2013-8-5,75.6,64.3,58.5,64.2,59.2,55.6,98,84,58,30.03,29.75,4,0,5,0.30
2013-8-6,76.7,62.2,49.9,61.9,53.7,48.8,99,77,41,30.03,29.77,5,0,5,0.01
2013-8-7,74.3,63.0,51.7,57.8,51.7,48.6,98,70,43,30.03,29.91,11,0,11,0.00
2013-8-8,80.5,63.4,47.7,58.6,52.5,46.1,97,71,37,30.12,30.03,5,0,5,0.00
2013-8-9,77.1,66.3,60.3,63.1,55.9,48.5,96,72,46,30.18,30.02,7,0,7,0.03
2013-8-10,73.5,63.3,53.5,54.4,50.3,47.6,85,64,42,30.20,30.13,7,0,7,0.00
2013-8-11,76.8,64.7,56.5,58.8,53.1,48.8,85,68,42,30.13,30.00,6,0,6,0.00
2013-8-12,72.5,61.5,52.5,54.3,49.3,45.2,92,67,39,30.09,30.00,8,0,8,0.00
2013-8-13,71.3,58.3,46.7,56.8,50.4,45.3,96,77,46,30.21,30.09,8,0,8,0.01
2013-8-14,74.8,60.4,47.3,59.5,54.7,46.5,99,84,53,30.22,30.14,3,0,3,0.05
2013-8-15,74.0,66.2,60.4,65.3,61.2,57.2,98,85,65,30.15,30.01,7,0,7,0.01
2013-8-16,71.6,64.6,60.1,64.9,61.2,58.0,96,89,76,30.01,29.93,3,0,3,0.04
2013-8-17,68.8,61.4,54.8,60.8,57.4,54.1,98,87,69,29.98,29.74,6,0,6,0.01
2013-8-18,76.4,65.2,58.3,61.0,58.3,52.6,97,80,48,29.91,29.73,4,0,6,0.01
2013-8-19,74.3,61.7,49.4,54.2,50.9,47.7,96,70,45,30.31,29.91,7,0,7,0.00
2013-8-20,81.2,62.6,50.7,55.7,51.7,48.2,95,71,37,30.36,30.29,5,0,5,0.00
2013-8-21,78.4,68.0,56.1,58.0,54.4,52.0,88,65,43,30.36,30.14,3,0,3,0.00
2013-8-22,71.7,64.5,60.3,67.4,62.4,57.7,99,93,81,30.15,30.05,1,0,1,0.47
2013-8-23,84.9,68.6,56.5,65.8,60.9,55.9,99,79,47,30.05,29.84,4,0,4,0.00
2013-8-24,73.6,62.5,57.3,63.7,60.5,55.3,97,93,62,29.87,29.81,7,0,7,0.39
2013-8-25,76.1,62.7,54.2,64.0,58.2,53.1,97,86,61,30.04,29.83,9,0,9,0.13
2013-8-26,80.2,65.9,53.6,62.7,57.1,50.5,92,75,47,30.08,30.03,7,1,7,0.00
2013-8-27,75.0,60.1,47.2,59.5,51.6,46.1,98,77,46,30.12,30.04,7,0,7,0.00
2013-8-28,78.3,61.5,51.0,57.6,53.0,48.5,98,77,41,30.22,30.05,4,0,4,0.00
2013-8-29,77.8,63.3,53.9,59.0,55.4,52.5,97,77,48,30.20,30.12,4,0,4,0.00
2013-8-30,78.8,65.0,54.8,61.6,58.1,54.0,99,80,52,30.15,30.04,7,0,7,0.00
2013-8-31,69.5,61.9,52.4,58.8,48.4,42.1,90,63,42,30.40,30.12,8,1,8,0.00
2013-9-1,71.3,57.8,43.3,51.9,47.6,41.1,94,71,47,30.44,30.33,4,0,4,0.00
2013-9-2,78.7,63.1,50.0,60.1,54.9,48.6,96,77,51,30.35,30.28,9,0,9,0.00
2013-9-3,77.6,63.9,53.0,64.3,58.6,52.2,99,85,59,30.36,30.26,3,0,3,0.00
2013-9-4,89.6,65.0,49.7,65.0,56.7,48.9,99,79,36,30.27,29.99,0,0,0,0.00
2013-9-5,87.8,66.6,52.1,64.0,57.0,51.2,99,75,43,29.99,29.75,4,0,4,0.00
2013-9-6,76.0,57.5,49.3,59.7,54.2,47.9,97,89,57,29.83,29.70,3,0,3,0.16
2013-9-7,67.3,55.1,46.7,55.3,50.1,45.2,98,85,56,30.04,29.83,6,0,6,0.03
2013-9-8,61.2,50.2,42.5,55.2,47.9,41.7,99,92,66,30.07,30.03,6,0,6,0.16
2013-9-9,56.9,51.3,46.2,56.6,50.9,45.7,99,98,97,30.06,29.96,5,0,6,0.22
2013-9-10,63.2,54.4,47.1,52.8,49.4,46.5,99,85,61,30.16,30.05,8,0,8,0.00
2013-9-11,62.3,57.0,53.7,54.1,50.7,47.8,97,80,65,30.17,30.11,10,1,10,0.08
2013-9-12,65.3,58.4,53.8,59.2,56.2,53.1,98,93,79,30.12,30.07,1,0,1,0.06
2013-9-13,68.7,61.9,59.5,65.9,61.2,58.7,99,97,88,30.07,29.86,4,0,4,0.77
2013-9-14,60.8,52.2,44.9,60.5,50.5,44.1,99,94,79,30.08,29.86,11,1,11,0.10
2013-9-15,59.4,51.4,40.1,58.8,49.5,39.6,99,94,71,30.06,29.55,7,0,7,0.10
2013-9-16,60.2,50.1,43.1,52.2,44.5,40.7,97,82,56,29.65,29.58,12,0,12,0.03
2013-9-17,58.3,51.6,42.8,58.0,49.1,40.7,99,91,75,29.65,29.34,4,0,4,0.30
2013-9-18,61.1,54.1,44.2,55.5,49.4,42.1,98,85,64,29.88,29.40,7,0,7,0.01
2013-9-19,60.6,52.4,43.9,59.5,50.2,42.2,98,92,76,29.89,29.73,5,0,5,0.02
2013-9-20,59.3,49.8,48.2,58.5,48.9,47.5,99,97,83,30.06,29.75,2,0,2,0.00
2013-9-21,58.7,58.1,57.5,52.3,52.2,52.1,82,81,80,30.06,30.05,0,0,1,0.00
2013-9-22,59.9,59.3,58.7,52.4,52.3,52.3,80,78,77,30.05,30.05,0,0,1,0.00
2013-9-23,61.1,60.5,59.9,52.6,52.5,52.4,77,76,74,30.05,30.04,0,0,1,0.00
2013-9-24,62.3,61.7,61.1,52.8,52.7,52.6,74,73,71,30.04,30.04,0,0,0,0.00
2013-9-25,63.5,62.9,62.3,52.9,52.8,52.8,71,70,69,30.04,30.03,0,0,0,0.00
2013-9-26,65.1,61.9,52.4,54.5,52.7,50.1,94,72,61,30.05,30.01,2,0,3,0.00
2013-9-27,66.8,54.8,45.7,54.5,50.1,44.9,99,85,62,30.05,29.92,7,0,7,0.00
2013-9-28,64.9,58.1,51.4,58.8,53.9,50.0,96,86,70,29.92,29.73,7,0,7,0.02
2013-9-29,66.2,59.1,56.6,56.4,53.6,52.5,91,82,69,29.75,29.70,10,1,10,0.00
2013-9-30,65.6,58.8,52.8,57.0,53.8,50.0,95,84,68,29.77,29.67,5,0,5,0.00
2013-10-1,63.6,56.9,50.8,58.5,52.8,49.0,96,86,78,29.81,29.75,4,0,4,0.00
2013-10-2,74.0,61.3,54.7,63.7,57.3,53.3,97,87,69,29.88,29.78,3,0,3,0.00
2013-10-3,63.5,59.3,54.6,63.2,58.5,53.8,99,97,95,29.87,29.69,5,0,5,0.09
2013-10-4,66.6,62.2,55.4,63.8,60.1,54.6,99,93,79,29.94,29.68,8,0,8,0.03
2013-10-5,68.3,58.7,53.9,59.2,56.1,52.9,99,92,69,30.25,29.94,5,0,5,0.00
2013-10-6,71.5,53.8,42.7,55.7,50.3,42.2,100,89,55,30.30,30.25,3,0,3,0.00
2013-10-7,66.6,56.4,47.2,59.0,53.7,46.7,99,91,71,30.30,30.24,3,0,3,0.00
2013-10-8,70.8,60.3,51.8,60.5,57.3,51.0,99,90,68,30.28,30.23,4,0,4,0.00
2013-10-9,62.9,55.9,44.7,58.0,50.9,39.2,97,84,69,30.24,29.99,9,0,9,0.00
2013-10-10,54.9,48.1,44.2,46.4,39.8,37.9,82,73,60,30.13,30.00,13,2,13,0.00
2013-10-11,55.6,52.1,47.6,53.0,48.2,40.1,96,87,73,30.12,29.97,17,2,17,0.23
2013-10-12,59.1,51.2,44.1,52.0,47.4,43.0,97,88,61,30.12,30.01,10,0,10,0.09
2013-10-13,52.1,49.0,45.6,51.5,48.2,44.8,99,97,96,30.01,29.78,7,0,7,0.41
2013-10-14,52.7,48.4,46.4,50.0,47.3,45.8,99,96,88,29.79,29.71,3,0,3,0.12
2013-10-15,53.8,47.9,40.9,49.7,46.3,40.1,99,94,83,29.96,29.75,6,0,6,0.00
2013-10-16,58.1,48.7,40.9,58.1,47.9,40.4,100,97,92,29.96,29.68,4,0,4,0.13
2013-10-17,63.4,55.6,49.7,57.4,53.3,49.0,99,92,78,30.01,29.75,8,0,8,0.02
2013-10-18,62.8,54.1,46.1,59.1,52.5,45.8,100,95,85,30.00,29.76,2,0,2,0.00
2013-10-19,62.8,57.4,51.4,60.8,56.3,50.7,99,96,91,29.76,29.63,4,0,4,0.09
2013-10-20,61.7,54.8,50.9,58.8,54.1,50.3,100,97,89,29.75,29.63,6,0,6,0.43
2013-10-21,62.8,58.8,52.3,59.8,57.3,52.0,100,95,87,29.75,29.60,7,0,7,0.03
2013-10-22,64.1,60.0,54.5,61.1,58.3,53.8,99,94,89,29.60,29.33,5,0,5,0.43
2013-10-23,61.2,54.5,44.2,57.0,52.4,43.5,99,93,75,29.86,29.27,8,0,8,0.24
2013-10-24,64.2,49.9,38.4,58.3,48.4,38.1,100,95,79,29.98,29.81,2,0,2,0.01
2013-10-25,65.3,59.2,54.9,61.7,56.9,53.5,99,92,83,29.81,29.59,5,0,5,0.06
2013-10-26,62.2,59.2,56.5,57.1,55.7,53.4,95,88,81,29.70,29.49,9,0,10,0.02
2013-10-27,58.5,54.4,53.4,56.3,52.9,52.1,98,95,90,29.64,29.21,7,1,7,0.51
2013-10-28,57.6,52.1,44.3,55.6,49.3,43.5,98,91,72,29.59,28.91,19,1,19,0.62
2013-10-29,53.9,45.4,38.5,48.2,42.4,37.8,98,90,68,30.07,29.54,9,0,9,0.01
2013-10-30,56.2,47.4,36.7,51.9,44.8,36.1,99,91,73,30.17,29.98,4,0,5,0.00
2013-10-31,55.4,53.7,51.5,53.2,52.1,50.6,97,94,89,30.07,29.94,5,0,5,0.13
2013-11-1,56.7,53.0,50.8,55.6,51.8,49.4,98,96,90,29.94,29.53,5,0,5,0.06
2013-11-2,57.6,51.5,46.4,54.5,48.3,42.9,99,89,74,29.58,29.40,9,0,9,0.03
2013-11-3,52.0,47.2,44.1,46.4,42.7,39.7,98,84,70,29.59,29.03,9,0,9,0.31
2013-11-4,49.6,43.2,37.1,46.5,40.5,36.3,98,91,72,29.50,29.02,10,0,10,0.31
2013-11-5,53.1,46.5,37.1,51.3,44.2,36.3,99,92,71,29.52,29.25,15,0,15,0.26
2013-11-6,59.0,52.9,47.6,57.1,51.1,44.6,99,94,87,29.54,29.48,7,0,7,0.06
2013-11-7,57.9,57.2,56.4,55.4,54.8,54.3,93,92,91,29.64,29.50,1,1,4,0.00
2013-11-8,56.4,55.6,54.9,54.3,53.7,53.2,94,93,93,29.78,29.64,1,1,3,0.00
2013-11-9,54.9,54.1,53.3,53.2,52.6,52.0,96,95,94,29.92,29.78,1,0,2,0.00
2013-11-10,53.3,52.6,51.8,52.0,51.5,50.9,97,96,96,30.06,29.92,0,0,2,0.00
2013-11-11,51.8,51.0,50.2,50.9,50.4,49.8,98,98,97,30.20,30.06,0,0,1,0.00
2013-11-12,54.3,47.5,34.5,51.1,45.8,33.9,99,94,78,30.52,30.20,9,0,9,0.06
2013-11-13,48.1,38.8,29.9,45.9,37.7,29.6,100,96,83,30.57,30.21,2,0,2,0.01
2013-11-14,48.9,44.7,40.0,43.1,40.3,35.8,95,84,72,30.41,30.14,14,1,14,0.00
2013-11-15,48.7,40.3,31.7,40.4,35.8,30.9,98,85,69,30.53,30.42,9,1,9,0.00
2013-11-16,47.4,38.5,28.3,44.6,37.3,27.8,99,96,85,30.53,30.37,5,0,5,0.01
2013-11-17,49.0,46.9,44.1,46.5,45.1,43.2,98,94,87,30.45,30.02,2,0,2,0.00
2013-11-18,49.3,46.3,42.5,47.9,45.2,40.8,99,96,90,30.01,29.76,5,0,6,0.02
2013-11-19,43.3,36.6,26.5,40.8,32.9,25.2,98,87,66,30.06,29.80,13,1,13,0.01
2013-11-20,44.7,36.5,25.8,43.1,34.8,24.8,97,93,88,30.04,29.40,11,0,11,0.13
2013-11-21,45.9,41.3,37.6,40.0,37.4,34.5,96,86,68,29.93,29.41,13,2,13,0.02
2013-11-22,45.8,40.8,38.0,38.8,36.4,34.6,95,84,72,30.16,29.93,10,1,10,0.00
2013-11-23,45.2,40.6,34.3,40.0,37.8,33.3,98,90,79,30.31,30.15,10,1,10,0.00
2013-11-24,46.7,43.4,40.2,43.3,39.3,36.7,91,86,75,30.56,30.31,10,1,10,0.00
2013-11-25,44.9,41.9,39.7,38.7,37.6,36.0,92,85,77,30.68,30.56,9,1,9,0.00
2013-11-26,44.9,39.7,29.1,39.2,35.2,27.8,97,84,71,30.72,30.58,6,0,6,0.00
2013-11-27,50.9,45.5,41.5,48.2,43.9,39.0,98,94,89,30.58,30.48,3,0,3,0.01
2013-11-28,50.0,47.6,45.3,46.6,45.5,43.8,97,93,87,30.57,30.52,3,0,3,0.00
2013-11-29,50.1,46.3,43.2,44.8,42.0,38.0,97,85,70,30.52,30.18,10,1,11,0.00
2013-11-30,47.3,42.3,32.5,41.1,37.4,31.4,96,83,76,30.47,30.19,12,1,12,0.00
2013-12-1,48.6,40.0,29.9,44.0,38.3,28.8,98,94,83,30.56,30.44,4,0,4,0.00
2013-12-2,49.2,43.5,38.0,44.8,41.1,36.7,98,92,78,30.57,30.45,3,0,3,0.00
2013-12-3,43.7,41.7,39.4,40.3,37.6,35.4,97,85,79,30.45,30.33,4,0,4,0.00
2013-12-4,47.4,39.8,29.0,44.2,36.5,28.3,98,88,67,30.50,30.30,6,0,6,0.00
2013-12-5,50.6,39.9,29.2,45.8,35.9,28.6,99,86,65,30.48,30.03,15,1,15,0.04
2013-12-6,46.7,40.1,31.2,42.0,35.9,29.4,95,85,72,30.38,30.25,8,0,8,0.00
2013-12-7,48.2,44.9,41.9,44.6,42.7,40.6,96,92,84,30.36,30.27,4,0,4,0.00
2013-12-8,51.5,44.8,38.4,46.7,42.7,37.6,98,92,83,30.32,30.25,7,0,7,0.00
2013-12-9,50.1,41.2,31.0,47.7,40.4,30.4,99,97,91,30.41,30.32,3,0,3,0.01
2013-12-10,46.9,36.4,29.5,46.6,36.1,29.0,100,99,98,30.46,30.41,1,0,1,0.00
2013-12-11,36.2,31.7,28.4,36.0,31.4,28.2,99,99,98,30.44,30.30,2,0,2,0.01
2013-12-12,45.1,37.5,28.3,45.1,37.4,28.1,100,100,99,30.31,30.20,1,0,1,0.01
2013-12-13,52.1,48.2,42.4,50.0,47.7,41.9,100,98,89,30.20,30.02,4,0,4,0.09
2013-12-14,50.9,44.8,34.9,49.0,43.1,34.3,100,94,81,30.30,30.06,11,0,11,0.05
2013-12-15,53.3,50.6,40.4,52.8,50.0,39.7,100,97,93,30.17,30.00,10,0,10,0.17
2013-12-16,54.1,51.1,44.1,53.0,50.4,43.3,99,97,94,30.13,29.94,9,1,9,0.41
2013-12-17,44.2,41.7,38.6,43.9,40.9,38.1,99,97,94,30.27,29.98,8,0,8,0.21
2013-12-18,49.2,45.5,38.2,48.7,44.7,37.9,100,97,92,29.98,29.30,9,0,9,0.30
2013-12-19,47.1,40.6,34.5,46.6,39.3,34.0,99,95,83,29.86,29.33,5,0,5,0.13
2013-12-20,50.4,41.7,33.4,46.9,39.9,33.1,99,93,85,30.18,29.87,10,0,10,0.01
2013-12-21,52.7,50.1,46.9,51.0,48.7,43.4,98,95,86,30.06,29.72,12,1,12,0.35
2013-12-22,49.6,44.8,37.3,45.4,40.8,34.9,94,86,69,29.93,29.73,10,0,10,0.01
2013-12-23,51.9,47.2,37.7,51.1,45.8,35.8,98,95,90,29.92,28.87,18,1,18,0.77
2013-12-24,51.7,45.0,39.5,50.8,43.7,38.5,98,95,87,29.00,28.80,14,0,17,0.59
2013-12-25,41.8,37.5,33.0,41.3,37.1,32.4,99,99,97,29.17,28.93,2,0,3,0.10
2013-12-26,43.5,36.6,32.1,43.5,36.4,31.9,100,99,94,29.50,29.17,7,0,7,0.01
2013-12-27,51.4,47.0,41.7,51.0,43.5,37.5,99,88,78,29.27,29.01,11,1,11,0.13
2013-12-28,44.9,37.9,28.9,40.5,35.6,28.4,98,92,80,29.72,29.26,3,0,3,0.01
2013-12-29,45.2,35.4,27.8,42.9,34.3,27.3,99,96,87,30.09,29.72,4,0,4,0.01
2013-12-30,49.7,45.7,37.9,48.5,44.1,37.2,99,94,86,30.01,29.67,11,1,11,0.21
2013-12-31,50.3,44.8,38.7,48.2,43.9,38.2,100,97,91,29.85,29.55,7,0,7,0.15
2014-1-1,50.4,46.3,40.9,49.9,45.9,40.1,100,98,95,29.59,29.02,12,1,12,0.58
2014-1-2,49.7,45.9,40.5,48.4,44.8,40.2,99,96,87,29.46,29.07,6,0,6,0.21